sensor_id;sensor_type;location;lat;lon;timestamp;P1;durP1;ratioP1;P2;durP2;ratioP2
48813;SDS011;34634;44.108;3.074;2022-08-04T00:02:06;1.95;;;0.93;;
48813;SDS011;34634;44.108;3.074;2022-08-04T00:07:25;3.60;;;1.40;;
48813;SDS011;34634;44.108;3.074;2022-08-04T00:09:55;3.42;;;1.20;;
48813;SDS011;34634;44.108;3.074;2022-08-04T00:12:24;2.40;;;1.20;;
48813;SDS011;34634;44.108;3.074;2022-08-04T00:14:55;2.25;;;1.15;;
48813;SDS011;34634;44.108;3.074;2022-08-04T00:17:25;3.22;;;1.33;;
48813;SDS011;34634;44.108;3.074;2022-08-04T00:19:55;2.85;;;1.10;;
48813;SDS011;34634;44.108;3.074;2022-08-04T00:22:25;2.17;;;1.40;;
48813;SDS011;34634;44.108;3.074;2022-08-04T00:24:52;3.78;;;1.20;;
48813;SDS011;34634;44.108;3.074;2022-08-04T00:27:19;2.03;;;1.10;;
48813;SDS011;34634;44.108;3.074;2022-08-04T00:29:46;1.60;;;1.13;;
48813;SDS011;34634;44.108;3.074;2022-08-04T00:32:13;1.30;;;1.20;;
48813;SDS011;34634;44.108;3.074;2022-08-04T00:34:39;1.40;;;1.20;;
48813;SDS011;34634;44.108;3.074;2022-08-04T00:37:06;1.40;;;1.15;;
48813;SDS011;34634;44.108;3.074;2022-08-04T00:39:32;4.57;;;1.42;;
48813;SDS011;34634;44.108;3.074;2022-08-04T00:44:51;2.92;;;1.13;;
48813;SDS011;34634;44.108;3.074;2022-08-04T00:50:08;1.90;;;1.20;;
48813;SDS011;34634;44.108;3.074;2022-08-04T00:52:55;1.48;;;1.10;;
48813;SDS011;34634;44.108;3.074;2022-08-04T01:03:24;2.42;;;1.10;;
48813;SDS011;34634;44.108;3.074;2022-08-04T01:16:17;2.17;;;1.20;;
48813;SDS011;34634;44.108;3.074;2022-08-04T01:19:01;1.25;;;1.15;;
48813;SDS011;34634;44.108;3.074;2022-08-04T01:26:38;1.67;;;1.30;;
48813;SDS011;34634;44.108;3.074;2022-08-04T01:29:07;2.80;;;1.48;;
48813;SDS011;34634;44.108;3.074;2022-08-04T01:34:04;1.30;;;1.20;;
48813;SDS011;34634;44.108;3.074;2022-08-04T01:36:34;4.25;;;1.27;;
48813;SDS011;34634;44.108;3.074;2022-08-04T01:39:01;1.35;;;1.23;;
48813;SDS011;34634;44.108;3.074;2022-08-04T01:41:46;1.73;;;1.30;;
48813;SDS011;34634;44.108;3.074;2022-08-04T01:44:13;2.17;;;1.20;;
48813;SDS011;34634;44.108;3.074;2022-08-04T01:46:40;1.27;;;1.10;;
48813;SDS011;34634;44.108;3.074;2022-08-04T01:49:06;4.68;;;1.40;;
48813;SDS011;34634;44.108;3.074;2022-08-04T01:51:34;5.65;;;1.50;;
48813;SDS011;34634;44.108;3.074;2022-08-04T01:54:03;1.67;;;1.33;;
48813;SDS011;34634;44.108;3.074;2022-08-04T01:56:30;1.50;;;1.40;;
48813;SDS011;34634;44.108;3.074;2022-08-04T01:58:56;1.83;;;1.25;;
48813;SDS011;34634;44.108;3.074;2022-08-04T02:01:23;1.27;;;1.10;;
48813;SDS011;34634;44.108;3.074;2022-08-04T02:03:49;1.50;;;1.40;;
48813;SDS011;34634;44.108;3.074;2022-08-04T02:08:59;1.40;;;1.23;;
48813;SDS011;34634;44.108;3.074;2022-08-04T02:11:28;2.53;;;1.25;;
48813;SDS011;34634;44.108;3.074;2022-08-04T02:14:05;1.77;;;1.10;;
48813;SDS011;34634;44.108;3.074;2022-08-04T02:16:46;1.98;;;1.10;;
48813;SDS011;34634;44.108;3.074;2022-08-04T02:19:28;1.52;;;1.30;;
48813;SDS011;34634;44.108;3.074;2022-08-04T02:21:56;4.22;;;1.48;;
48813;SDS011;34634;44.108;3.074;2022-08-04T02:24:24;1.67;;;1.17;;
48813;SDS011;34634;44.108;3.074;2022-08-04T02:26:52;4.50;;;1.95;;
48813;SDS011;34634;44.108;3.074;2022-08-04T02:29:53;4.30;;;1.67;;
48813;SDS011;34634;44.108;3.074;2022-08-04T02:32:14;4.13;;;1.55;;
48813;SDS011;34634;44.108;3.074;2022-08-04T02:37:10;1.98;;;1.60;;
48813;SDS011;34634;44.108;3.074;2022-08-04T02:39:37;3.45;;;1.60;;
48813;SDS011;34634;44.108;3.074;2022-08-04T02:42:07;2.45;;;1.50;;
48813;SDS011;34634;44.108;3.074;2022-08-04T02:44:35;1.90;;;1.27;;
48813;SDS011;34634;44.108;3.074;2022-08-04T02:47:02;1.60;;;1.45;;
48813;SDS011;34634;44.108;3.074;2022-08-04T02:49:29;2.58;;;1.40;;
48813;SDS011;34634;44.108;3.074;2022-08-04T02:51:58;3.90;;;1.40;;
48813;SDS011;34634;44.108;3.074;2022-08-04T02:54:27;3.38;;;1.30;;
48813;SDS011;34634;44.108;3.074;2022-08-04T02:56:54;1.40;;;1.23;;
48813;SDS011;34634;44.108;3.074;2022-08-04T02:59:22;2.83;;;1.45;;
48813;SDS011;34634;44.108;3.074;2022-08-04T03:01:51;4.75;;;1.33;;
48813;SDS011;34634;44.108;3.074;2022-08-04T03:30:12;3.08;;;1.35;;
48813;SDS011;34634;44.108;3.074;2022-08-04T03:45:56;1.88;;;1.55;;
48813;SDS011;34634;44.108;3.074;2022-08-04T03:50:59;2.13;;;1.20;;
48813;SDS011;34634;44.108;3.074;2022-08-04T03:54:16;3.53;;;1.40;;
48813;SDS011;34634;44.108;3.074;2022-08-04T03:56:50;2.95;;;1.52;;
48813;SDS011;34634;44.108;3.074;2022-08-04T03:59:35;4.45;;;1.50;;
48813;SDS011;34634;44.108;3.074;2022-08-04T04:04:45;1.42;;;1.33;;
48813;SDS011;34634;44.108;3.074;2022-08-04T04:12:42;5.18;;;1.67;;
48813;SDS011;34634;44.108;3.074;2022-08-04T04:26:22;2.45;;;1.85;;
48813;SDS011;34634;44.108;3.074;2022-08-04T04:44:32;11.45;;;1.90;;
48813;SDS011;34634;44.108;3.074;2022-08-04T04:46:49;5.30;;;1.70;;
48813;SDS011;34634;44.108;3.074;2022-08-04T04:49:30;4.03;;;1.50;;
48813;SDS011;34634;44.108;3.074;2022-08-04T04:52:06;6.28;;;1.70;;
48813;SDS011;34634;44.108;3.074;2022-08-04T04:54:37;10.75;;;1.67;;
48813;SDS011;34634;44.108;3.074;2022-08-04T04:59:34;7.35;;;1.63;;
48813;SDS011;34634;44.108;3.074;2022-08-04T05:07:32;8.90;;;2.00;;
48813;SDS011;34634;44.108;3.074;2022-08-04T05:12:37;11.23;;;2.00;;
48813;SDS011;34634;44.108;3.074;2022-08-04T05:15:08;26.92;;;2.75;;
48813;SDS011;34634;44.108;3.074;2022-08-04T05:17:42;12.35;;;2.53;;
48813;SDS011;34634;44.108;3.074;2022-08-04T05:20:15;29.00;;;2.72;;
48813;SDS011;34634;44.108;3.074;2022-08-04T05:23:10;17.83;;;2.30;;
48813;SDS011;34634;44.108;3.074;2022-08-04T05:25:38;21.08;;;2.15;;
48813;SDS011;34634;44.108;3.074;2022-08-04T05:28:10;24.98;;;2.40;;
48813;SDS011;34634;44.108;3.074;2022-08-04T05:30:38;15.45;;;2.17;;
48813;SDS011;34634;44.108;3.074;2022-08-04T05:33:13;19.80;;;2.92;;
48813;SDS011;34634;44.108;3.074;2022-08-04T05:35:42;22.73;;;2.38;;
48813;SDS011;34634;44.108;3.074;2022-08-04T05:38:09;13.70;;;2.25;;
48813;SDS011;34634;44.108;3.074;2022-08-04T05:40:37;16.65;;;2.20;;
48813;SDS011;34634;44.108;3.074;2022-08-04T05:43:04;16.70;;;2.30;;
48813;SDS011;34634;44.108;3.074;2022-08-04T05:45:32;17.38;;;2.30;;
48813;SDS011;34634;44.108;3.074;2022-08-04T05:48:02;21.45;;;2.35;;
48813;SDS011;34634;44.108;3.074;2022-08-04T05:50:30;16.15;;;2.40;;
48813;SDS011;34634;44.108;3.074;2022-08-04T05:52:58;25.17;;;2.75;;
48813;SDS011;34634;44.108;3.074;2022-08-04T05:55:25;24.25;;;3.08;;
48813;SDS011;34634;44.108;3.074;2022-08-04T05:57:52;18.90;;;2.20;;
48813;SDS011;34634;44.108;3.074;2022-08-04T06:00:18;22.58;;;2.75;;
48813;SDS011;34634;44.108;3.074;2022-08-04T06:02:45;13.00;;;2.30;;
48813;SDS011;34634;44.108;3.074;2022-08-04T06:05:13;12.57;;;2.20;;
48813;SDS011;34634;44.108;3.074;2022-08-04T06:07:40;15.35;;;2.30;;
48813;SDS011;34634;44.108;3.074;2022-08-04T06:10:06;10.13;;;2.38;;
48813;SDS011;34634;44.108;3.074;2022-08-04T06:12:35;12.73;;;1.90;;
48813;SDS011;34634;44.108;3.074;2022-08-04T06:15:03;15.88;;;2.30;;
48813;SDS011;34634;44.108;3.074;2022-08-04T06:17:31;14.02;;;2.10;;
48813;SDS011;34634;44.108;3.074;2022-08-04T06:19:58;17.88;;;2.08;;
48813;SDS011;34634;44.108;3.074;2022-08-04T06:22:25;14.10;;;2.38;;
48813;SDS011;34634;44.108;3.074;2022-08-04T06:24:52;18.80;;;2.50;;
48813;SDS011;34634;44.108;3.074;2022-08-04T06:27:20;15.10;;;2.58;;
48813;SDS011;34634;44.108;3.074;2022-08-04T06:29:47;13.77;;;2.60;;
48813;SDS011;34634;44.108;3.074;2022-08-04T06:32:14;19.60;;;2.40;;
48813;SDS011;34634;44.108;3.074;2022-08-04T06:34:54;15.52;;;2.75;;
48813;SDS011;34634;44.108;3.074;2022-08-04T06:37:21;20.90;;;2.60;;
48813;SDS011;34634;44.108;3.074;2022-08-04T06:39:48;6.75;;;2.10;;
48813;SDS011;34634;44.108;3.074;2022-08-04T06:42:16;11.15;;;2.17;;
48813;SDS011;34634;44.108;3.074;2022-08-04T06:44:44;16.38;;;2.55;;
48813;SDS011;34634;44.108;3.074;2022-08-04T06:47:11;12.40;;;2.35;;
48813;SDS011;34634;44.108;3.074;2022-08-04T06:49:37;7.25;;;2.13;;
48813;SDS011;34634;44.108;3.074;2022-08-04T06:52:04;16.10;;;2.70;;
48813;SDS011;34634;44.108;3.074;2022-08-04T06:54:31;9.00;;;1.90;;
48813;SDS011;34634;44.108;3.074;2022-08-04T06:56:57;8.40;;;1.90;;
48813;SDS011;34634;44.108;3.074;2022-08-04T06:59:24;6.25;;;2.38;;
48813;SDS011;34634;44.108;3.074;2022-08-04T07:01:51;2.10;;;1.77;;
48813;SDS011;34634;44.108;3.074;2022-08-04T07:04:18;5.80;;;1.98;;
48813;SDS011;34634;44.108;3.074;2022-08-04T07:06:44;8.70;;;2.63;;
48813;SDS011;34634;44.108;3.074;2022-08-04T07:09:11;5.35;;;2.53;;
48813;SDS011;34634;44.108;3.074;2022-08-04T07:11:37;7.30;;;2.15;;
48813;SDS011;34634;44.108;3.074;2022-08-04T07:14:04;6.05;;;2.30;;
48813;SDS011;34634;44.108;3.074;2022-08-04T07:16:30;6.40;;;2.17;;
48813;SDS011;34634;44.108;3.074;2022-08-04T07:18:57;8.95;;;3.13;;
48813;SDS011;34634;44.108;3.074;2022-08-04T07:21:23;3.75;;;2.83;;
48813;SDS011;34634;44.108;3.074;2022-08-04T07:23:51;4.70;;;3.08;;
48813;SDS011;34634;44.108;3.074;2022-08-04T07:26:17;8.07;;;2.70;;
48813;SDS011;34634;44.108;3.074;2022-08-04T07:28:44;4.78;;;2.72;;
48813;SDS011;34634;44.108;3.074;2022-08-04T07:31:16;3.17;;;2.53;;
48813;SDS011;34634;44.108;3.074;2022-08-04T07:33:43;3.75;;;2.60;;
48813;SDS011;34634;44.108;3.074;2022-08-04T07:36:09;7.15;;;2.40;;
48813;SDS011;34634;44.108;3.074;2022-08-04T07:38:39;7.97;;;3.70;;
48813;SDS011;34634;44.108;3.074;2022-08-04T07:41:06;6.25;;;3.80;;
48813;SDS011;34634;44.108;3.074;2022-08-04T07:43:34;7.20;;;2.70;;
48813;SDS011;34634;44.108;3.074;2022-08-04T07:46:01;6.28;;;3.15;;
48813;SDS011;34634;44.108;3.074;2022-08-04T07:48:28;4.07;;;2.55;;
48813;SDS011;34634;44.108;3.074;2022-08-04T07:50:54;8.57;;;2.40;;
48813;SDS011;34634;44.108;3.074;2022-08-04T07:53:20;7.53;;;2.63;;
48813;SDS011;34634;44.108;3.074;2022-08-04T07:55:47;3.50;;;2.15;;
48813;SDS011;34634;44.108;3.074;2022-08-04T07:58:14;3.40;;;2.55;;
48813;SDS011;34634;44.108;3.074;2022-08-04T08:00:42;8.77;;;2.35;;
48813;SDS011;34634;44.108;3.074;2022-08-04T08:03:09;10.35;;;2.35;;
48813;SDS011;34634;44.108;3.074;2022-08-04T08:05:36;6.47;;;2.50;;
48813;SDS011;34634;44.108;3.074;2022-08-04T08:08:04;6.20;;;2.20;;
48813;SDS011;34634;44.108;3.074;2022-08-04T08:10:30;7.18;;;2.30;;
48813;SDS011;34634;44.108;3.074;2022-08-04T08:12:56;8.30;;;2.60;;
48813;SDS011;34634;44.108;3.074;2022-08-04T08:15:23;3.85;;;2.30;;
48813;SDS011;34634;44.108;3.074;2022-08-04T08:17:50;8.55;;;2.30;;
48813;SDS011;34634;44.108;3.074;2022-08-04T08:20:16;7.65;;;2.72;;
48813;SDS011;34634;44.108;3.074;2022-08-04T08:22:43;6.20;;;2.10;;
48813;SDS011;34634;44.108;3.074;2022-08-04T08:25:10;5.35;;;2.22;;
48813;SDS011;34634;44.108;3.074;2022-08-04T08:27:36;5.30;;;2.20;;
48813;SDS011;34634;44.108;3.074;2022-08-04T08:30:03;3.25;;;2.42;;
48813;SDS011;34634;44.108;3.074;2022-08-04T08:32:29;12.13;;;2.42;;
48813;SDS011;34634;44.108;3.074;2022-08-04T08:34:56;3.92;;;2.28;;
48813;SDS011;34634;44.108;3.074;2022-08-04T08:39:56;3.45;;;2.00;;
48813;SDS011;34634;44.108;3.074;2022-08-04T09:00:46;2.42;;;1.83;;
48813;SDS011;34634;44.108;3.074;2022-08-04T09:06:12;5.97;;;1.85;;
48813;SDS011;34634;44.108;3.074;2022-08-04T09:11:31;5.38;;;1.80;;
48813;SDS011;34634;44.108;3.074;2022-08-04T09:21:50;4.28;;;2.05;;
48813;SDS011;34634;44.108;3.074;2022-08-04T09:24:24;5.32;;;1.88;;
48813;SDS011;34634;44.108;3.074;2022-08-04T09:27:09;2.80;;;1.83;;
48813;SDS011;34634;44.108;3.074;2022-08-04T09:34:50;4.93;;;1.80;;
48813;SDS011;34634;44.108;3.074;2022-08-04T09:44:45;6.00;;;1.40;;
48813;SDS011;34634;44.108;3.074;2022-08-04T09:47:18;5.28;;;1.08;;
48813;SDS011;34634;44.108;3.074;2022-08-04T10:02:14;3.53;;;1.08;;
48813;SDS011;34634;44.108;3.074;2022-08-04T10:04:43;1.58;;;0.82;;
48813;SDS011;34634;44.108;3.074;2022-08-04T10:09:56;4.05;;;1.00;;
48813;SDS011;34634;44.108;3.074;2022-08-04T10:15:13;1.50;;;0.80;;
48813;SDS011;34634;44.108;3.074;2022-08-04T10:17:55;1.90;;;0.90;;
48813;SDS011;34634;44.108;3.074;2022-08-04T10:23:11;1.58;;;0.82;;
48813;SDS011;34634;44.108;3.074;2022-08-04T10:28:24;1.52;;;1.00;;
48813;SDS011;34634;44.108;3.074;2022-08-04T10:31:00;3.65;;;0.70;;
48813;SDS011;34634;44.108;3.074;2022-08-04T10:33:32;1.02;;;0.70;;
48813;SDS011;34634;44.108;3.074;2022-08-04T10:36:00;3.30;;;0.80;;
48813;SDS011;34634;44.108;3.074;2022-08-04T10:38:29;0.60;;;0.60;;
48813;SDS011;34634;44.108;3.074;2022-08-04T10:46:02;3.00;;;0.70;;
48813;SDS011;34634;44.108;3.074;2022-08-04T10:48:35;3.67;;;0.90;;
48813;SDS011;34634;44.108;3.074;2022-08-04T10:53:58;1.17;;;0.80;;
48813;SDS011;34634;44.108;3.074;2022-08-04T10:56:34;1.75;;;0.88;;
48813;SDS011;34634;44.108;3.074;2022-08-04T10:59:05;2.63;;;0.85;;
48813;SDS011;34634;44.108;3.074;2022-08-04T11:01:37;5.22;;;0.90;;
48813;SDS011;34634;44.108;3.074;2022-08-04T11:04:11;0.95;;;0.80;;
48813;SDS011;34634;44.108;3.074;2022-08-04T11:06:40;1.45;;;0.65;;
48813;SDS011;34634;44.108;3.074;2022-08-04T11:09:08;2.35;;;0.93;;
48813;SDS011;34634;44.108;3.074;2022-08-04T11:11:40;1.15;;;1.00;;
48813;SDS011;34634;44.108;3.074;2022-08-04T11:14:15;3.28;;;0.90;;
48813;SDS011;34634;44.108;3.074;2022-08-04T11:21:55;2.95;;;1.17;;
48813;SDS011;34634;44.108;3.074;2022-08-04T11:27:02;1.83;;;0.90;;
48813;SDS011;34634;44.108;3.074;2022-08-04T11:31:57;2.25;;;1.30;;
48813;SDS011;34634;44.108;3.074;2022-08-04T11:34:26;1.10;;;1.00;;
48813;SDS011;34634;44.108;3.074;2022-08-04T11:39:29;1.55;;;0.88;;
48813;SDS011;34634;44.108;3.074;2022-08-04T11:46:55;0.82;;;0.82;;
48813;SDS011;34634;44.108;3.074;2022-08-04T11:51:54;7.83;;;1.40;;
48813;SDS011;34634;44.108;3.074;2022-08-04T11:54:21;2.17;;;1.13;;
48813;SDS011;34634;44.108;3.074;2022-08-04T11:56:47;2.47;;;1.20;;
48813;SDS011;34634;44.108;3.074;2022-08-04T11:59:13;2.20;;;1.35;;
48813;SDS011;34634;44.108;3.074;2022-08-04T12:01:49;1.52;;;1.23;;
48813;SDS011;34634;44.108;3.074;2022-08-04T12:17:01;3.13;;;1.40;;
48813;SDS011;34634;44.108;3.074;2022-08-04T12:21:56;3.20;;;1.30;;
48813;SDS011;34634;44.108;3.074;2022-08-04T12:24:30;2.95;;;1.30;;
48813;SDS011;34634;44.108;3.074;2022-08-04T12:26:58;4.47;;;1.10;;
48813;SDS011;34634;44.108;3.074;2022-08-04T12:29:30;3.40;;;1.20;;
48813;SDS011;34634;44.108;3.074;2022-08-04T12:32:21;1.60;;;1.20;;
48813;SDS011;34634;44.108;3.074;2022-08-04T12:34:52;1.45;;;1.10;;
48813;SDS011;34634;44.108;3.074;2022-08-04T12:37:22;2.22;;;1.50;;
48813;SDS011;34634;44.108;3.074;2022-08-04T12:39:52;5.40;;;1.48;;
48813;SDS011;34634;44.108;3.074;2022-08-04T12:44:45;1.90;;;1.20;;
48813;SDS011;34634;44.108;3.074;2022-08-04T12:47:20;3.38;;;1.20;;
48813;SDS011;34634;44.108;3.074;2022-08-04T12:49:48;5.25;;;1.60;;
48813;SDS011;34634;44.108;3.074;2022-08-04T12:52:14;1.92;;;1.58;;
48813;SDS011;34634;44.108;3.074;2022-08-04T12:54:42;2.35;;;1.20;;
48813;SDS011;34634;44.108;3.074;2022-08-04T12:57:10;2.40;;;1.10;;
48813;SDS011;34634;44.108;3.074;2022-08-04T12:59:44;1.73;;;1.30;;
48813;SDS011;34634;44.108;3.074;2022-08-04T13:02:16;1.75;;;1.10;;
48813;SDS011;34634;44.108;3.074;2022-08-04T13:04:43;1.48;;;1.33;;
48813;SDS011;34634;44.108;3.074;2022-08-04T13:07:14;6.55;;;1.35;;
48813;SDS011;34634;44.108;3.074;2022-08-04T13:09:43;2.10;;;1.30;;
48813;SDS011;34634;44.108;3.074;2022-08-04T13:12:14;3.78;;;1.25;;
48813;SDS011;34634;44.108;3.074;2022-08-04T13:14:41;2.03;;;1.25;;
48813;SDS011;34634;44.108;3.074;2022-08-04T13:17:09;2.22;;;1.45;;
48813;SDS011;34634;44.108;3.074;2022-08-04T13:19:36;2.38;;;1.40;;
48813;SDS011;34634;44.108;3.074;2022-08-04T13:22:02;2.50;;;1.48;;
48813;SDS011;34634;44.108;3.074;2022-08-04T13:24:30;4.00;;;1.50;;
48813;SDS011;34634;44.108;3.074;2022-08-04T13:27:06;2.22;;;1.30;;
48813;SDS011;34634;44.108;3.074;2022-08-04T13:29:38;1.40;;;1.30;;
48813;SDS011;34634;44.108;3.074;2022-08-04T13:32:05;1.85;;;1.17;;
48813;SDS011;34634;44.108;3.074;2022-08-04T13:34:33;2.42;;;1.38;;
48813;SDS011;34634;44.108;3.074;2022-08-04T13:37:02;4.10;;;1.30;;
48813;SDS011;34634;44.108;3.074;2022-08-04T13:39:29;6.82;;;1.52;;
48813;SDS011;34634;44.108;3.074;2022-08-04T13:41:57;2.10;;;1.45;;
48813;SDS011;34634;44.108;3.074;2022-08-04T13:44:29;1.67;;;1.35;;
48813;SDS011;34634;44.108;3.074;2022-08-04T13:47:03;1.65;;;1.30;;
48813;SDS011;34634;44.108;3.074;2022-08-04T13:49:30;3.58;;;1.80;;
48813;SDS011;34634;44.108;3.074;2022-08-04T13:52:00;3.55;;;1.60;;
48813;SDS011;34634;44.108;3.074;2022-08-04T13:54:43;2.20;;;1.50;;
48813;SDS011;34634;44.108;3.074;2022-08-04T13:57:11;6.00;;;1.50;;
48813;SDS011;34634;44.108;3.074;2022-08-04T13:59:38;2.40;;;1.30;;
48813;SDS011;34634;44.108;3.074;2022-08-04T14:02:07;6.45;;;1.30;;
48813;SDS011;34634;44.108;3.074;2022-08-04T14:04:37;1.50;;;1.40;;
48813;SDS011;34634;44.108;3.074;2022-08-04T14:07:16;3.42;;;1.55;;
48813;SDS011;34634;44.108;3.074;2022-08-04T14:09:43;6.35;;;1.70;;
48813;SDS011;34634;44.108;3.074;2022-08-04T14:12:11;3.35;;;1.45;;
48813;SDS011;34634;44.108;3.074;2022-08-04T14:14:45;2.88;;;1.55;;
48813;SDS011;34634;44.108;3.074;2022-08-04T14:17:13;2.70;;;1.40;;
48813;SDS011;34634;44.108;3.074;2022-08-04T14:24:58;3.63;;;1.30;;
48813;SDS011;34634;44.108;3.074;2022-08-04T14:27:25;1.90;;;1.45;;
48813;SDS011;34634;44.108;3.074;2022-08-04T14:29:53;1.90;;;1.60;;
48813;SDS011;34634;44.108;3.074;2022-08-04T14:32:20;3.88;;;1.50;;
48813;SDS011;34634;44.108;3.074;2022-08-04T14:34:47;1.55;;;1.45;;
48813;SDS011;34634;44.108;3.074;2022-08-04T14:37:14;2.58;;;1.67;;
48813;SDS011;34634;44.108;3.074;2022-08-04T14:39:45;4.20;;;1.80;;
48813;SDS011;34634;44.108;3.074;2022-08-04T14:42:12;3.00;;;1.58;;
48813;SDS011;34634;44.108;3.074;2022-08-04T14:44:55;5.10;;;1.60;;
48813;SDS011;34634;44.108;3.074;2022-08-04T14:50:07;4.18;;;1.35;;
48813;SDS011;34634;44.108;3.074;2022-08-04T14:52:34;2.03;;;1.80;;
48813;SDS011;34634;44.108;3.074;2022-08-04T14:57:56;2.58;;;2.10;;
48813;SDS011;34634;44.108;3.074;2022-08-04T15:00:26;2.30;;;2.10;;
48813;SDS011;34634;44.108;3.074;2022-08-04T15:02:53;2.88;;;2.17;;
48813;SDS011;34634;44.108;3.074;2022-08-04T15:05:22;3.50;;;2.10;;
48813;SDS011;34634;44.108;3.074;2022-08-04T15:07:48;3.17;;;2.00;;
48813;SDS011;34634;44.108;3.074;2022-08-04T15:10:15;3.05;;;1.98;;
48813;SDS011;34634;44.108;3.074;2022-08-04T15:12:41;2.53;;;2.13;;
48813;SDS011;34634;44.108;3.074;2022-08-04T15:15:08;5.07;;;2.20;;
48813;SDS011;34634;44.108;3.074;2022-08-04T15:17:34;3.55;;;1.65;;
48813;SDS011;34634;44.108;3.074;2022-08-04T15:20:01;2.05;;;1.83;;
48813;SDS011;34634;44.108;3.074;2022-08-04T15:22:27;3.22;;;1.98;;
48813;SDS011;34634;44.108;3.074;2022-08-04T15:24:54;4.53;;;2.10;;
48813;SDS011;34634;44.108;3.074;2022-08-04T15:27:20;2.03;;;1.92;;
48813;SDS011;34634;44.108;3.074;2022-08-04T15:29:49;3.55;;;1.80;;
48813;SDS011;34634;44.108;3.074;2022-08-04T15:32:16;3.05;;;2.10;;
48813;SDS011;34634;44.108;3.074;2022-08-04T15:34:46;3.47;;;2.30;;
48813;SDS011;34634;44.108;3.074;2022-08-04T15:39:57;2.92;;;2.00;;
48813;SDS011;34634;44.108;3.074;2022-08-04T15:45:23;3.33;;;2.22;;
48813;SDS011;34634;44.108;3.074;2022-08-04T15:48:35;6.25;;;2.20;;
48813;SDS011;34634;44.108;3.074;2022-08-04T15:53:27;2.38;;;2.10;;
48813;SDS011;34634;44.108;3.074;2022-08-04T15:55:54;2.28;;;2.13;;
48813;SDS011;34634;44.108;3.074;2022-08-04T15:58:21;6.18;;;2.30;;
48813;SDS011;34634;44.108;3.074;2022-08-04T16:16:29;4.75;;;2.10;;
48813;SDS011;34634;44.108;3.074;2022-08-04T16:19:06;3.78;;;2.20;;
48813;SDS011;34634;44.108;3.074;2022-08-04T16:21:34;5.70;;;2.60;;
48813;SDS011;34634;44.108;3.074;2022-08-04T16:29:48;5.32;;;2.22;;
48813;SDS011;34634;44.108;3.074;2022-08-04T16:37:07;4.68;;;2.05;;
48813;SDS011;34634;44.108;3.074;2022-08-04T16:39:34;2.50;;;1.92;;
48813;SDS011;34634;44.108;3.074;2022-08-04T16:42:26;2.40;;;2.20;;
48813;SDS011;34634;44.108;3.074;2022-08-04T16:44:57;3.10;;;2.03;;
48813;SDS011;34634;44.108;3.074;2022-08-04T16:50:09;5.13;;;2.10;;
48813;SDS011;34634;44.108;3.074;2022-08-04T16:52:41;6.30;;;2.25;;
48813;SDS011;34634;44.108;3.074;2022-08-04T16:55:07;4.55;;;2.20;;
48813;SDS011;34634;44.108;3.074;2022-08-04T16:57:34;6.13;;;2.40;;
48813;SDS011;34634;44.108;3.074;2022-08-04T17:00:00;3.60;;;1.88;;
48813;SDS011;34634;44.108;3.074;2022-08-04T17:02:27;4.53;;;2.03;;
48813;SDS011;34634;44.108;3.074;2022-08-04T17:04:53;3.13;;;2.20;;
48813;SDS011;34634;44.108;3.074;2022-08-04T17:07:19;3.67;;;2.10;;
48813;SDS011;34634;44.108;3.074;2022-08-04T17:09:49;3.22;;;2.20;;
48813;SDS011;34634;44.108;3.074;2022-08-04T17:12:15;3.50;;;1.90;;
48813;SDS011;34634;44.108;3.074;2022-08-04T17:14:42;4.90;;;2.15;;
48813;SDS011;34634;44.108;3.074;2022-08-04T17:17:08;3.10;;;2.10;;
48813;SDS011;34634;44.108;3.074;2022-08-04T17:19:35;2.53;;;2.17;;
48813;SDS011;34634;44.108;3.074;2022-08-04T17:22:05;5.60;;;2.10;;
48813;SDS011;34634;44.108;3.074;2022-08-04T17:24:34;4.50;;;1.92;;
48813;SDS011;34634;44.108;3.074;2022-08-04T17:27:02;4.38;;;2.15;;
48813;SDS011;34634;44.108;3.074;2022-08-04T17:29:29;5.00;;;2.25;;
48813;SDS011;34634;44.108;3.074;2022-08-04T17:31:55;4.75;;;2.08;;
48813;SDS011;34634;44.108;3.074;2022-08-04T17:34:21;6.63;;;2.08;;
48813;SDS011;34634;44.108;3.074;2022-08-04T17:36:50;6.18;;;2.00;;
48813;SDS011;34634;44.108;3.074;2022-08-04T17:39:19;3.28;;;1.98;;
48813;SDS011;34634;44.108;3.074;2022-08-04T17:41:54;6.20;;;2.10;;
48813;SDS011;34634;44.108;3.074;2022-08-04T17:44:20;7.68;;;2.28;;
48813;SDS011;34634;44.108;3.074;2022-08-04T17:46:47;3.88;;;1.95;;
48813;SDS011;34634;44.108;3.074;2022-08-04T17:54:19;5.90;;;2.47;;
48813;SDS011;34634;44.108;3.074;2022-08-04T17:56:51;4.55;;;2.28;;
48813;SDS011;34634;44.108;3.074;2022-08-04T18:01:51;4.32;;;2.05;;
48813;SDS011;34634;44.108;3.074;2022-08-04T18:06:54;2.97;;;2.40;;
48813;SDS011;34634;44.108;3.074;2022-08-04T18:09:24;3.05;;;2.40;;
48813;SDS011;34634;44.108;3.074;2022-08-04T18:11:55;5.80;;;2.15;;
48813;SDS011;34634;44.108;3.074;2022-08-04T18:16:48;2.45;;;2.25;;
48813;SDS011;34634;44.108;3.074;2022-08-04T18:19:15;2.65;;;1.95;;
48813;SDS011;34634;44.108;3.074;2022-08-04T18:21:42;3.30;;;2.05;;
48813;SDS011;34634;44.108;3.074;2022-08-04T18:24:10;4.13;;;2.28;;
48813;SDS011;34634;44.108;3.074;2022-08-04T18:26:37;4.25;;;2.58;;
48813;SDS011;34634;44.108;3.074;2022-08-04T18:29:04;5.25;;;2.30;;
48813;SDS011;34634;44.108;3.074;2022-08-04T18:31:32;7.15;;;2.50;;
48813;SDS011;34634;44.108;3.074;2022-08-04T18:34:00;4.82;;;2.83;;
48813;SDS011;34634;44.108;3.074;2022-08-04T18:36:26;6.43;;;2.35;;
48813;SDS011;34634;44.108;3.074;2022-08-04T18:38:52;7.65;;;2.30;;
48813;SDS011;34634;44.108;3.074;2022-08-04T18:41:19;6.05;;;2.60;;
48813;SDS011;34634;44.108;3.074;2022-08-04T18:43:45;3.03;;;2.60;;
48813;SDS011;34634;44.108;3.074;2022-08-04T18:46:11;5.47;;;2.53;;
48813;SDS011;34634;44.108;3.074;2022-08-04T18:48:38;5.15;;;2.97;;
48813;SDS011;34634;44.108;3.074;2022-08-04T18:51:04;5.53;;;3.08;;
48813;SDS011;34634;44.108;3.074;2022-08-04T18:53:30;4.00;;;2.60;;
48813;SDS011;34634;44.108;3.074;2022-08-04T18:55:57;4.18;;;2.50;;
48813;SDS011;34634;44.108;3.074;2022-08-04T18:58:23;4.07;;;2.55;;
48813;SDS011;34634;44.108;3.074;2022-08-04T19:00:50;2.97;;;2.58;;
48813;SDS011;34634;44.108;3.074;2022-08-04T19:03:16;6.40;;;2.72;;
48813;SDS011;34634;44.108;3.074;2022-08-04T19:05:42;6.13;;;2.92;;
48813;SDS011;34634;44.108;3.074;2022-08-04T19:08:09;4.72;;;2.72;;
48813;SDS011;34634;44.108;3.074;2022-08-04T19:10:35;4.18;;;2.85;;
48813;SDS011;34634;44.108;3.074;2022-08-04T19:13:01;5.20;;;2.65;;
48813;SDS011;34634;44.108;3.074;2022-08-04T19:15:27;3.25;;;2.70;;
48813;SDS011;34634;44.108;3.074;2022-08-04T19:17:55;3.90;;;2.70;;
48813;SDS011;34634;44.108;3.074;2022-08-04T19:20:22;3.35;;;2.58;;
48813;SDS011;34634;44.108;3.074;2022-08-04T19:22:48;3.65;;;3.10;;
48813;SDS011;34634;44.108;3.074;2022-08-04T19:25:14;7.25;;;2.80;;
48813;SDS011;34634;44.108;3.074;2022-08-04T19:27:41;7.28;;;2.70;;
48813;SDS011;34634;44.108;3.074;2022-08-04T19:30:07;5.53;;;3.20;;
48813;SDS011;34634;44.108;3.074;2022-08-04T19:32:34;6.65;;;2.47;;
48813;SDS011;34634;44.108;3.074;2022-08-04T19:35:00;6.05;;;2.92;;
48813;SDS011;34634;44.108;3.074;2022-08-04T19:37:26;5.22;;;2.88;;
48813;SDS011;34634;44.108;3.074;2022-08-04T19:39:52;6.40;;;3.08;;
48813;SDS011;34634;44.108;3.074;2022-08-04T19:42:19;4.15;;;2.95;;
48813;SDS011;34634;44.108;3.074;2022-08-04T19:44:45;3.53;;;2.60;;
48813;SDS011;34634;44.108;3.074;2022-08-04T19:47:11;5.93;;;3.05;;
48813;SDS011;34634;44.108;3.074;2022-08-04T19:49:38;5.80;;;2.90;;
48813;SDS011;34634;44.108;3.074;2022-08-04T19:52:04;4.07;;;2.67;;
48813;SDS011;34634;44.108;3.074;2022-08-04T19:54:31;7.20;;;2.63;;
48813;SDS011;34634;44.108;3.074;2022-08-04T19:56:58;8.07;;;2.72;;
48813;SDS011;34634;44.108;3.074;2022-08-04T19:59:24;4.43;;;2.88;;
48813;SDS011;34634;44.108;3.074;2022-08-04T20:01:50;3.03;;;2.60;;